Bartlett, Tennessee
Current Conditions -  °F | °C
As of 6:50 PM on Wednesday 26 Nov 2014 (Local Time) from KNQA Reporting Station
Broken Clouds Broken Clouds  
Wind Chill: 45°   Ceiling: 4800
Heat Index: 45°   Visibility: 10mi
Dew Point: 37°   Wind: 3mph
Humidity: 76%   Direction: 260°W
Pressure: 30.13"   Gusts: NA
Location:  35.2°N, 89.85°W
Report Text: KNQA 270050Z 26003KT 10SM FEW040 BKN048 BKN090 07/03 A3013
Loading
Personal Weather Stations






























Interactive Weather Map New forecast layout! Learn more

10-Day Weather Forecast

Advertisements
Track Severe Weather on mobile